sensor_id;sensor_type;location;lat;lon;timestamp;pressure;altitude;pressure_sealevel;temperature;humidity
8398;BME280;4236;54.504;9.588;2023-02-13T00:00:40;103693.50;;;6.98;100.00
8398;BME280;4236;54.504;9.588;2023-02-13T00:03:08;103693.50;;;6.98;100.00
8398;BME280;4236;54.504;9.588;2023-02-13T00:05:36;103701.47;;;6.98;100.00
8398;BME280;4236;54.504;9.588;2023-02-13T00:08:04;103693.38;;;7.00;100.00
8398;BME280;4236;54.504;9.588;2023-02-13T00:10:31;103695.31;;;6.98;100.00
8398;BME280;4236;54.504;9.588;2023-02-13T00:12:59;103698.81;;;6.98;100.00
8398;BME280;4236;54.504;9.588;2023-02-13T00:15:26;103702.22;;;7.00;100.00
8398;BME280;4236;54.504;9.588;2023-02-13T00:17:55;103696.03;;;7.00;100.00
8398;BME280;4236;54.504;9.588;2023-02-13T00:20:23;103699.66;;;6.99;100.00
8398;BME280;4236;54.504;9.588;2023-02-13T00:22:51;103694.44;;;6.97;100.00
8398;BME280;4236;54.504;9.588;2023-02-13T00:25:18;103692.66;;;6.98;100.00
8398;BME280;4236;54.504;9.588;2023-02-13T00:27:46;103694.44;;;6.97;100.00
8398;BME280;4236;54.504;9.588;2023-02-13T00:30:14;103702.53;;;6.96;100.00
8398;BME280;4236;54.504;9.588;2023-02-13T00:32:42;103695.38;;;6.96;100.00
8398;BME280;4236;54.504;9.588;2023-02-13T00:35:11;103696.44;;;6.94;100.00
8398;BME280;4236;54.504;9.588;2023-02-13T00:37:39;103697.22;;;6.96;100.00
8398;BME280;4236;54.504;9.588;2023-02-13T00:40:07;103696.38;;;6.95;100.00
8398;BME280;4236;54.504;9.588;2023-02-13T00:42:35;103694.78;;;6.93;100.00
8398;BME280;4236;54.504;9.588;2023-02-13T00:45:03;103700.16;;;6.91;100.00
8398;BME280;4236;54.504;9.588;2023-02-13T00:47:31;103697.63;;;6.90;100.00
8398;BME280;4236;54.504;9.588;2023-02-13T00:49:59;103695.78;;;6.90;100.00
8398;BME280;4236;54.504;9.588;2023-02-13T00:52:28;103698.44;;;6.90;100.00
8398;BME280;4236;54.504;9.588;2023-02-13T00:54:56;103699.31;;;6.91;100.00
8398;BME280;4236;54.504;9.588;2023-02-13T00:57:23;103699.50;;;6.88;100.00
8398;BME280;4236;54.504;9.588;2023-02-13T00:59:51;103696.84;;;6.88;100.00
8398;BME280;4236;54.504;9.588;2023-02-13T01:02:18;103695.06;;;6.88;100.00
8398;BME280;4236;54.504;9.588;2023-02-13T01:04:46;103689.94;;;6.85;100.00
8398;BME280;4236;54.504;9.588;2023-02-13T01:07:14;103687.41;;;6.84;100.00
8398;BME280;4236;54.504;9.588;2023-02-13T01:09:43;103689.94;;;6.85;100.00
8398;BME280;4236;54.504;9.588;2023-02-13T01:12:11;103692.81;;;6.82;100.00
8398;BME280;4236;54.504;9.588;2023-02-13T01:14:39;103681.25;;;6.83;100.00
8398;BME280;4236;54.504;9.588;2023-02-13T01:17:06;103677.00;;;6.81;100.00
8398;BME280;4236;54.504;9.588;2023-02-13T01:19:34;103674.44;;;6.79;100.00
8398;BME280;4236;54.504;9.588;2023-02-13T01:22:02;103681.66;;;6.77;100.00
8398;BME280;4236;54.504;9.588;2023-02-13T01:24:30;103676.56;;;6.74;100.00
8398;BME280;4236;54.504;9.588;2023-02-13T01:27:00;103672.84;;;6.77;100.00
8398;BME280;4236;54.504;9.588;2023-02-13T01:29:28;103670.28;;;6.75;100.00
8398;BME280;4236;54.504;9.588;2023-02-13T01:31:56;103671.97;;;6.76;100.00
8398;BME280;4236;54.504;9.588;2023-02-13T01:34:24;103668.59;;;6.74;100.00
8398;BME280;4236;54.504;9.588;2023-02-13T01:36:51;103671.53;;;6.69;100.00
8398;BME280;4236;54.504;9.588;2023-02-13T01:39:20;103664.53;;;6.68;100.00
8398;BME280;4236;54.504;9.588;2023-02-13T01:41:47;103666.44;;;6.66;100.00
8398;BME280;4236;54.504;9.588;2023-02-13T01:44:46;103663.56;;;6.69;100.00
8398;BME280;4236;54.504;9.588;2023-02-13T01:47:17;103655.63;;;6.69;100.00
8398;BME280;4236;54.504;9.588;2023-02-13T01:49:48;103659.13;;;6.70;100.00
8398;BME280;4236;54.504;9.588;2023-02-13T01:52:17;103658.38;;;6.68;100.00
8398;BME280;4236;54.504;9.588;2023-02-13T01:54:45;103647.00;;;6.66;100.00
8398;BME280;4236;54.504;9.588;2023-02-13T01:57:17;103646.06;;;6.67;100.00
8398;BME280;4236;54.504;9.588;2023-02-13T01:59:52;103650.72;;;6.63;100.00
8398;BME280;4236;54.504;9.588;2023-02-13T02:02:21;103648.72;;;6.67;100.00
8398;BME280;4236;54.504;9.588;2023-02-13T02:04:49;103652.31;;;6.66;100.00
8398;BME280;4236;54.504;9.588;2023-02-13T02:07:20;103648.06;;;6.63;100.00
8398;BME280;4236;54.504;9.588;2023-02-13T02:09:49;103649.91;;;6.63;100.00
8398;BME280;4236;54.504;9.588;2023-02-13T02:12:22;103641.09;;;6.62;100.00
8398;BME280;4236;54.504;9.588;2023-02-13T02:14:54;103654.34;;;6.62;100.00
8398;BME280;4236;54.504;9.588;2023-02-13T02:17:25;103651.56;;;6.64;100.00
8398;BME280;4236;54.504;9.588;2023-02-13T02:20:01;103645.53;;;6.62;100.00
8398;BME280;4236;54.504;9.588;2023-02-13T02:22:51;103637.66;;;6.60;100.00
8398;BME280;4236;54.504;9.588;2023-02-13T02:25:45;103649.97;;;6.61;100.00
8398;BME280;4236;54.504;9.588;2023-02-13T02:28:29;103652.44;;;6.64;100.00
8398;BME280;4236;54.504;9.588;2023-02-13T02:34:09;103648.19;;;6.62;100.00
8398;BME280;4236;54.504;9.588;2023-02-13T02:36:51;103640.44;;;6.59;100.00
8398;BME280;4236;54.504;9.588;2023-02-13T02:39:31;103635.97;;;6.59;100.00
8398;BME280;4236;54.504;9.588;2023-02-13T02:42:16;103638.50;;;6.61;100.00
8398;BME280;4236;54.504;9.588;2023-02-13T02:44:51;103650.91;;;6.60;100.00
8398;BME280;4236;54.504;9.588;2023-02-13T02:47:24;103650.28;;;6.57;100.00
8398;BME280;4236;54.504;9.588;2023-02-13T02:50:21;103649.44;;;6.56;100.00
8398;BME280;4236;54.504;9.588;2023-02-13T02:53:03;103637.13;;;6.55;100.00
8398;BME280;4236;54.504;9.588;2023-02-13T02:55:37;103639.78;;;6.55;100.00
8398;BME280;4236;54.504;9.588;2023-02-13T02:58:12;103639.69;;;6.57;100.00
8398;BME280;4236;54.504;9.588;2023-02-13T03:01:02;103638.72;;;6.58;100.00
8398;BME280;4236;54.504;9.588;2023-02-13T03:03:59;103638.72;;;6.58;100.00
8398;BME280;4236;54.504;9.588;2023-02-13T03:06:49;103639.56;;;6.58;100.00
8398;BME280;4236;54.504;9.588;2023-02-13T03:09:22;103639.13;;;6.52;100.00
8398;BME280;4236;54.504;9.588;2023-02-13T03:12:09;103645.19;;;6.54;100.00
8398;BME280;4236;54.504;9.588;2023-02-13T03:14:55;103635.53;;;6.53;100.00
8398;BME280;4236;54.504;9.588;2023-02-13T03:17:23;103644.22;;;6.55;100.00
8398;BME280;4236;54.504;9.588;2023-02-13T03:20:22;103636.25;;;6.55;100.00
8398;BME280;4236;54.504;9.588;2023-02-13T03:23:24;103640.81;;;6.53;100.00
8398;BME280;4236;54.504;9.588;2023-02-13T03:26:06;103634.66;;;6.52;100.00
8398;BME280;4236;54.504;9.588;2023-02-13T03:28:41;103635.72;;;6.50;100.00
8398;BME280;4236;54.504;9.588;2023-02-13T03:31:33;103635.06;;;6.46;100.00
8398;BME280;4236;54.504;9.588;2023-02-13T03:34:04;103640.16;;;6.49;100.00
8398;BME280;4236;54.504;9.588;2023-02-13T03:36:41;103640.28;;;6.48;100.00
8398;BME280;4236;54.504;9.588;2023-02-13T03:39:39;103639.31;;;6.49;100.00
8398;BME280;4236;54.504;9.588;2023-02-13T03:42:15;103643.47;;;6.53;100.00
8398;BME280;4236;54.504;9.588;2023-02-13T03:44:48;103637.31;;;6.52;100.00
8398;BME280;4236;54.504;9.588;2023-02-13T03:47:39;103644.53;;;6.50;100.00
8398;BME280;4236;54.504;9.588;2023-02-13T03:50:09;103648.97;;;6.50;100.00
8398;BME280;4236;54.504;9.588;2023-02-13T03:52:42;103640.28;;;6.48;100.00
8398;BME280;4236;54.504;9.588;2023-02-13T03:55:15;103639.50;;;6.46;100.00
8398;BME280;4236;54.504;9.588;2023-02-13T03:58:05;103644.94;;;6.44;100.00
8398;BME280;4236;54.504;9.588;2023-02-13T04:00:55;103645.97;;;6.42;100.00
8398;BME280;4236;54.504;9.588;2023-02-13T04:03:28;103649.66;;;6.39;100.00
8398;BME280;4236;54.504;9.588;2023-02-13T04:06:03;103647.84;;;6.40;100.00
8398;BME280;4236;54.504;9.588;2023-02-13T04:08:31;103649.66;;;6.39;100.00
8398;BME280;4236;54.504;9.588;2023-02-13T04:11:07;103655.81;;;6.40;100.00
8398;BME280;4236;54.504;9.588;2023-02-13T04:13:41;103646.25;;;6.37;100.00
8398;BME280;4236;54.504;9.588;2023-02-13T04:16:15;103649.78;;;6.38;100.00
8398;BME280;4236;54.504;9.588;2023-02-13T04:18:44;103650.81;;;6.35;100.00
8398;BME280;4236;54.504;9.588;2023-02-13T04:21:11;103653.34;;;6.37;100.00
8398;BME280;4236;54.504;9.588;2023-02-13T04:23:39;103659.50;;;6.37;100.00
8398;BME280;4236;54.504;9.588;2023-02-13T04:26:13;103655.94;;;6.38;100.00
8398;BME280;4236;54.504;9.588;2023-02-13T04:28:43;103660.44;;;6.36;100.00
8398;BME280;4236;54.504;9.588;2023-02-13T04:31:11;103662.47;;;6.33;100.00
8398;BME280;4236;54.504;9.588;2023-02-13T04:33:38;103662.38;;;6.34;100.00
8398;BME280;4236;54.504;9.588;2023-02-13T04:36:07;103658.84;;;6.34;100.00
8398;BME280;4236;54.504;9.588;2023-02-13T04:38:34;103653.56;;;6.34;100.00
8398;BME280;4236;54.504;9.588;2023-02-13T04:41:02;103653.66;;;6.32;100.00
8398;BME280;4236;54.504;9.588;2023-02-13T04:43:31;103654.41;;;6.34;100.00
8398;BME280;4236;54.504;9.588;2023-02-13T04:45:58;103656.13;;;6.35;100.00
8398;BME280;4236;54.504;9.588;2023-02-13T04:48:26;103653.75;;;6.31;100.00
8398;BME280;4236;54.504;9.588;2023-02-13T04:50:54;103650.91;;;6.34;100.00
8398;BME280;4236;54.504;9.588;2023-02-13T04:53:22;103652.91;;;6.30;100.00
8398;BME280;4236;54.504;9.588;2023-02-13T04:55:50;103652.06;;;6.30;100.00
8398;BME280;4236;54.504;9.588;2023-02-13T04:58:18;103642.22;;;6.32;100.00
8398;BME280;4236;54.504;9.588;2023-02-13T05:00:47;103644.75;;;6.33;100.00
8398;BME280;4236;54.504;9.588;2023-02-13T05:03:15;103647.50;;;6.32;100.00
8398;BME280;4236;54.504;9.588;2023-02-13T05:05:42;103648.44;;;6.31;100.00
8398;BME280;4236;54.504;9.588;2023-02-13T05:08:10;103651.97;;;6.31;100.00
8398;BME280;4236;54.504;9.588;2023-02-13T05:10:38;103651.88;;;6.33;100.00
8398;BME280;4236;54.504;9.588;2023-02-13T05:13:06;103648.38;;;6.32;100.00
8398;BME280;4236;54.504;9.588;2023-02-13T05:15:33;103656.31;;;6.32;100.00
8398;BME280;4236;54.504;9.588;2023-02-13T05:18:03;103655.53;;;6.30;100.00
8398;BME280;4236;54.504;9.588;2023-02-13T05:20:31;103650.34;;;6.29;100.00
8398;BME280;4236;54.504;9.588;2023-02-13T05:22:58;103653.75;;;6.31;100.00
8398;BME280;4236;54.504;9.588;2023-02-13T05:25:44;103653.88;;;6.29;100.00
8398;BME280;4236;54.504;9.588;2023-02-13T05:28:11;103653.88;;;6.29;100.00
8398;BME280;4236;54.504;9.588;2023-02-13T05:30:53;103657.44;;;6.28;100.00
8398;BME280;4236;54.504;9.588;2023-02-13T05:33:22;103655.84;;;6.26;100.00
8398;BME280;4236;54.504;9.588;2023-02-13T05:35:50;103652.16;;;6.28;100.00
8398;BME280;4236;54.504;9.588;2023-02-13T05:38:18;103659.03;;;6.31;100.00
8398;BME280;4236;54.504;9.588;2023-02-13T05:40:45;103655.47;;;6.32;100.00
8398;BME280;4236;54.504;9.588;2023-02-13T05:43:13;103661.63;;;6.32;100.00
8398;BME280;4236;54.504;9.588;2023-02-13T05:45:40;103665.22;;;6.31;100.00
8398;BME280;4236;54.504;9.588;2023-02-13T05:48:08;103669.56;;;6.32;100.00
8398;BME280;4236;54.504;9.588;2023-02-13T05:50:37;103671.38;;;6.32;100.00
8398;BME280;4236;54.504;9.588;2023-02-13T05:53:05;103676.00;;;6.28;100.00
8398;BME280;4236;54.504;9.588;2023-02-13T05:55:33;103667.13;;;6.29;100.00
8398;BME280;4236;54.504;9.588;2023-02-13T05:58:00;103674.41;;;6.26;100.00
8398;BME280;4236;54.504;9.588;2023-02-13T06:00:28;103672.50;;;6.28;100.00
8398;BME280;4236;54.504;9.588;2023-02-13T06:02:56;103672.41;;;6.29;100.00
8398;BME280;4236;54.504;9.588;2023-02-13T06:05:23;103674.00;;;6.32;100.00
8398;BME280;4236;54.504;9.588;2023-02-13T06:07:52;103662.66;;;6.30;100.00
8398;BME280;4236;54.504;9.588;2023-02-13T06:10:20;103671.56;;;6.29;100.00
8398;BME280;4236;54.504;9.588;2023-02-13T06:12:48;103673.28;;;6.30;100.00
8398;BME280;4236;54.504;9.588;2023-02-13T06:15:15;103670.50;;;6.31;100.00
8398;BME280;4236;54.504;9.588;2023-02-13T06:17:43;103669.03;;;6.27;100.00
8398;BME280;4236;54.504;9.588;2023-02-13T06:20:11;103677.72;;;6.29;100.00
8398;BME280;4236;54.504;9.588;2023-02-13T06:22:39;103683.00;;;6.29;100.00
8398;BME280;4236;54.504;9.588;2023-02-13T06:25:08;103683.88;;;6.30;100.00
8398;BME280;4236;54.504;9.588;2023-02-13T06:27:35;103685.66;;;6.29;100.00
8398;BME280;4236;54.504;9.588;2023-02-13T06:30:04;103692.09;;;6.25;100.00
8398;BME280;4236;54.504;9.588;2023-02-13T06:32:32;103689.25;;;6.28;100.00
8398;BME280;4236;54.504;9.588;2023-02-13T06:34:59;103699.84;;;6.28;100.00
8398;BME280;4236;54.504;9.588;2023-02-13T06:37:29;103709.72;;;6.26;100.00
8398;BME280;4236;54.504;9.588;2023-02-13T06:39:57;103702.50;;;6.28;100.00
8398;BME280;4236;54.504;9.588;2023-02-13T06:42:26;103700.72;;;6.29;100.00
8398;BME280;4236;54.504;9.588;2023-02-13T06:44:54;103701.56;;;6.29;100.00
8398;BME280;4236;54.504;9.588;2023-02-13T06:47:21;103700.59;;;6.30;100.00
8398;BME280;4236;54.504;9.588;2023-02-13T06:49:49;103706.13;;;6.27;100.00
8398;BME280;4236;54.504;9.588;2023-02-13T06:52:17;103704.97;;;6.31;100.00
8398;BME280;4236;54.504;9.588;2023-02-13T06:54:44;103706.88;;;6.29;100.00
8398;BME280;4236;54.504;9.588;2023-02-13T06:57:13;103704.28;;;6.28;100.00
8398;BME280;4236;54.504;9.588;2023-02-13T06:59:42;103705.34;;;6.25;100.00
8398;BME280;4236;54.504;9.588;2023-02-13T07:02:10;103705.28;;;6.27;100.00
8398;BME280;4236;54.504;9.588;2023-02-13T07:04:38;103702.63;;;6.27;100.00
8398;BME280;4236;54.504;9.588;2023-02-13T07:07:06;103717.47;;;6.29;100.00
8398;BME280;4236;54.504;9.588;2023-02-13T07:09:34;103713.78;;;6.32;100.00
8398;BME280;4236;54.504;9.588;2023-02-13T07:12:02;103718.41;;;6.28;100.00
8398;BME280;4236;54.504;9.588;2023-02-13T07:14:30;103717.53;;;6.28;100.00
8398;BME280;4236;54.504;9.588;2023-02-13T07:16:59;103717.53;;;6.28;100.00
8398;BME280;4236;54.504;9.588;2023-02-13T07:19:27;103725.50;;;6.28;100.00
8398;BME280;4236;54.504;9.588;2023-02-13T07:21:54;103724.44;;;6.30;100.00
8398;BME280;4236;54.504;9.588;2023-02-13T07:24:25;103723.63;;;6.30;100.00
8398;BME280;4236;54.504;9.588;2023-02-13T07:26:53;103718.41;;;6.28;100.00
8398;BME280;4236;54.504;9.588;2023-02-13T07:29:20;103731.56;;;6.30;100.00
8398;BME280;4236;54.504;9.588;2023-02-13T07:31:48;103721.72;;;6.32;100.00
8398;BME280;4236;54.504;9.588;2023-02-13T07:34:17;103730.53;;;6.32;100.00
8398;BME280;4236;54.504;9.588;2023-02-13T07:36:45;103726.16;;;6.31;100.00
8398;BME280;4236;54.504;9.588;2023-02-13T07:39:12;103725.88;;;6.36;100.00
8398;BME280;4236;54.504;9.588;2023-02-13T07:41:40;103722.28;;;6.37;100.00
8398;BME280;4236;54.504;9.588;2023-02-13T07:44:08;103728.34;;;6.39;100.00
8398;BME280;4236;54.504;9.588;2023-02-13T07:46:35;103726.53;;;6.39;100.00
8398;BME280;4236;54.504;9.588;2023-02-13T07:49:03;103724.72;;;6.40;100.00
8398;BME280;4236;54.504;9.588;2023-02-13T07:51:32;103717.56;;;6.42;100.00
8398;BME280;4236;54.504;9.588;2023-02-13T07:54:00;103725.31;;;6.45;100.00
8398;BME280;4236;54.504;9.588;2023-02-13T07:56:28;103727.00;;;6.46;100.00
8398;BME280;4236;54.504;9.588;2023-02-13T07:58:56;103738.91;;;6.53;100.00
8398;BME280;4236;54.504;9.588;2023-02-13T08:01:24;103732.69;;;6.54;100.00
8398;BME280;4236;54.504;9.588;2023-02-13T08:03:52;103744.03;;;6.56;100.00
8398;BME280;4236;54.504;9.588;2023-02-13T08:06:20;103727.19;;;6.57;100.00
8398;BME280;4236;54.504;9.588;2023-02-13T08:08:50;103730.56;;;6.59;100.00
8398;BME280;4236;54.504;9.588;2023-02-13T08:11:38;103731.50;;;6.58;100.00
8398;BME280;4236;54.504;9.588;2023-02-13T08:14:20;103738.34;;;6.62;100.00
8398;BME280;4236;54.504;9.588;2023-02-13T08:16:48;103735.50;;;6.65;100.00
8398;BME280;4236;54.504;9.588;2023-02-13T08:19:17;103738.69;;;6.70;100.00
8398;BME280;4236;54.504;9.588;2023-02-13T08:21:45;103744.72;;;6.72;100.00
8398;BME280;4236;54.504;9.588;2023-02-13T08:24:14;103738.59;;;6.72;100.00
8398;BME280;4236;54.504;9.588;2023-02-13T08:26:41;103738.50;;;6.73;100.00
8398;BME280;4236;54.504;9.588;2023-02-13T08:29:09;103742.66;;;6.77;100.00
8398;BME280;4236;54.504;9.588;2023-02-13T08:31:37;103735.44;;;6.79;100.00
8398;BME280;4236;54.504;9.588;2023-02-13T08:34:05;103735.97;;;6.84;100.00
8398;BME280;4236;54.504;9.588;2023-02-13T08:36:33;103738.25;;;6.90;100.00
8398;BME280;4236;54.504;9.588;2023-02-13T08:39:00;103739.00;;;6.92;100.00
8398;BME280;4236;54.504;9.588;2023-02-13T08:41:29;103739.75;;;6.94;100.00
8398;BME280;4236;54.504;9.588;2023-02-13T08:43:57;103734.44;;;6.94;100.00
8398;BME280;4236;54.504;9.588;2023-02-13T08:46:25;103733.19;;;7.00;100.00
8398;BME280;4236;54.504;9.588;2023-02-13T08:48:53;103740.00;;;7.04;100.00
8398;BME280;4236;54.504;9.588;2023-02-13T08:51:21;103744.13;;;7.08;100.00
8398;BME280;4236;54.504;9.588;2023-02-13T08:53:49;103731.44;;;7.13;100.00
8398;BME280;4236;54.504;9.588;2023-02-13T08:56:17;103740.78;;;7.18;100.00
8398;BME280;4236;54.504;9.588;2023-02-13T08:58:48;103730.63;;;7.25;100.00
8398;BME280;4236;54.504;9.588;2023-02-13T09:01:17;103732.22;;;7.28;100.00
8398;BME280;4236;54.504;9.588;2023-02-13T09:03:45;103745.16;;;7.32;100.00
8398;BME280;4236;54.504;9.588;2023-02-13T09:06:13;103744.97;;;7.35;100.00
8398;BME280;4236;54.504;9.588;2023-02-13T09:08:41;103740.72;;;7.33;100.00
8398;BME280;4236;54.504;9.588;2023-02-13T09:11:08;103735.84;;;7.39;100.00
8398;BME280;4236;54.504;9.588;2023-02-13T09:13:37;103740.44;;;7.37;100.00
8398;BME280;4236;54.504;9.588;2023-02-13T09:16:06;103740.22;;;7.40;100.00
8398;BME280;4236;54.504;9.588;2023-02-13T09:18:35;103742.56;;;7.45;100.00
8398;BME280;4236;54.504;9.588;2023-02-13T09:21:04;103737.88;;;7.48;100.00
8398;BME280;4236;54.504;9.588;2023-02-13T09:23:34;103737.47;;;7.54;100.00
8398;BME280;4236;54.504;9.588;2023-02-13T09:26:04;103743.09;;;7.62;100.00
8398;BME280;4236;54.504;9.588;2023-02-13T09:28:33;103728.69;;;7.66;100.00
8398;BME280;4236;54.504;9.588;2023-02-13T09:31:06;103733.56;;;7.72;100.00
8398;BME280;4236;54.504;9.588;2023-02-13T09:33:34;103737.09;;;7.73;100.00
8398;BME280;4236;54.504;9.588;2023-02-13T09:36:05;103737.81;;;7.75;100.00
8398;BME280;4236;54.504;9.588;2023-02-13T09:38:34;103739.19;;;7.80;100.00
8398;BME280;4236;54.504;9.588;2023-02-13T09:41:04;103737.50;;;7.92;100.00
8398;BME280;4236;54.504;9.588;2023-02-13T09:43:35;103739.28;;;7.92;100.00
8398;BME280;4236;54.504;9.588;2023-02-13T09:46:10;103739.84;;;7.97;100.00
8398;BME280;4236;54.504;9.588;2023-02-13T09:48:42;103746.03;;;7.97;100.00
8398;BME280;4236;54.504;9.588;2023-02-13T09:51:14;103749.94;;;8.04;100.00
8398;BME280;4236;54.504;9.588;2023-02-13T09:53:47;103759.41;;;8.08;100.00
8398;BME280;4236;54.504;9.588;2023-02-13T09:56:21;103751.22;;;8.11;100.00
8398;BME280;4236;54.504;9.588;2023-02-13T09:58:56;103744.28;;;8.21;100.00
8398;BME280;4236;54.504;9.588;2023-02-13T10:01:30;103740.44;;;8.25;100.00
8398;BME280;4236;54.504;9.588;2023-02-13T10:04:24;103736.66;;;8.29;100.00
8398;BME280;4236;54.504;9.588;2023-02-13T10:07:00;103737.81;;;8.38;100.00
8398;BME280;4236;54.504;9.588;2023-02-13T10:09:38;103743.53;;;8.45;100.00
8398;BME280;4236;54.504;9.588;2023-02-13T10:12:21;103742.75;;;8.55;100.00
8398;BME280;4236;54.504;9.588;2023-02-13T10:15:00;103740.66;;;8.48;100.00
8398;BME280;4236;54.504;9.588;2023-02-13T10:17:39;103740.00;;;8.57;100.00
8398;BME280;4236;54.504;9.588;2023-02-13T10:20:21;103749.22;;;8.64;100.00
8398;BME280;4236;54.504;9.588;2023-02-13T10:22:55;103749.22;;;8.64;100.00
8398;BME280;4236;54.504;9.588;2023-02-13T10:25:27;103738.25;;;8.68;100.00
8398;BME280;4236;54.504;9.588;2023-02-13T10:27:59;103742.38;;;8.72;100.00
8398;BME280;4236;54.504;9.588;2023-02-13T10:30:33;103738.66;;;8.75;100.00
8398;BME280;4236;54.504;9.588;2023-02-13T10:33:06;103735.22;;;8.85;100.00
8398;BME280;4236;54.504;9.588;2023-02-13T10:35:49;103733.28;;;8.87;100.00
8398;BME280;4236;54.504;9.588;2023-02-13T10:38:21;103740.19;;;8.90;100.00
8398;BME280;4236;54.504;9.588;2023-02-13T10:41:13;103738.28;;;8.92;100.00
8398;BME280;4236;54.504;9.588;2023-02-13T10:43:57;103737.59;;;9.01;100.00
8398;BME280;4236;54.504;9.588;2023-02-13T10:46:34;103734.94;;;9.01;100.00
8398;BME280;4236;54.504;9.588;2023-02-13T10:49:34;103735.44;;;9.06;100.00
8398;BME280;4236;54.504;9.588;2023-02-13T10:52:16;103730.50;;;9.13;100.00
8398;BME280;4236;54.504;9.588;2023-02-13T10:54:56;103734.03;;;9.13;100.00
8398;BME280;4236;54.504;9.588;2023-02-13T10:57:47;103726.53;;;9.18;100.00
8398;BME280;4236;54.504;9.588;2023-02-13T11:00:23;103728.97;;;9.21;100.00
8398;BME280;4236;54.504;9.588;2023-02-13T11:02:51;103727.16;;;9.22;100.00
8398;BME280;4236;54.504;9.588;2023-02-13T11:05:24;103726.44;;;9.20;100.00
8398;BME280;4236;54.504;9.588;2023-02-13T11:07:52;103719.16;;;9.22;100.00
8398;BME280;4236;54.504;9.588;2023-02-13T11:10:22;103714.22;;;9.28;100.00
8398;BME280;4236;54.504;9.588;2023-02-13T11:12:50;103711.09;;;9.34;100.00
8398;BME280;4236;54.504;9.588;2023-02-13T11:15:22;103709.63;;;9.30;100.00
8398;BME280;4236;54.504;9.588;2023-02-13T11:17:52;103705.53;;;9.37;100.00
8398;BME280;4236;54.504;9.588;2023-02-13T11:20:30;103707.59;;;9.45;100.00
8398;BME280;4236;54.504;9.588;2023-02-13T11:23:16;103705.56;;;9.49;100.00
8398;BME280;4236;54.504;9.588;2023-02-13T11:25:54;103712.13;;;9.56;100.00
8398;BME280;4236;54.504;9.588;2023-02-13T11:28:24;103713.31;;;9.40;100.00
8398;BME280;4236;54.504;9.588;2023-02-13T11:31:08;103710.28;;;9.45;100.00
8398;BME280;4236;54.504;9.588;2023-02-13T11:33:36;103717.53;;;9.43;100.00
8398;BME280;4236;54.504;9.588;2023-02-13T11:36:07;103714.59;;;9.35;100.00
8398;BME280;4236;54.504;9.588;2023-02-13T11:38:36;103707.97;;;9.40;100.00
8398;BME280;4236;54.504;9.588;2023-02-13T11:41:06;103693.19;;;9.36;100.00
8398;BME280;4236;54.504;9.588;2023-02-13T11:43:36;103706.13;;;9.41;100.00
8398;BME280;4236;54.504;9.588;2023-02-13T11:46:16;103698.66;;;9.46;100.00
8398;BME280;4236;54.504;9.588;2023-02-13T11:48:56;103697.66;;;9.36;100.00
8398;BME280;4236;54.504;9.588;2023-02-13T11:51:43;103694.13;;;9.24;100.00
8398;BME280;4236;54.504;9.588;2023-02-13T11:54:24;103699.53;;;9.23;100.00
8398;BME280;4236;54.504;9.588;2023-02-13T11:56:55;103697.00;;;9.21;100.00
8398;BME280;4236;54.504;9.588;2023-02-13T11:59:38;103696.78;;;9.24;100.00
8398;BME280;4236;54.504;9.588;2023-02-13T12:02:15;103694.09;;;9.13;100.00
8398;BME280;4236;54.504;9.588;2023-02-13T12:04:44;103689.44;;;9.04;100.00
8398;BME280;4236;54.504;9.588;2023-02-13T12:07:16;103694.16;;;9.01;100.00
8398;BME280;4236;54.504;9.588;2023-02-13T12:09:47;103697.38;;;8.69;100.00
8398;BME280;4236;54.504;9.588;2023-02-13T12:12:20;103697.09;;;8.61;100.00
8398;BME280;4236;54.504;9.588;2023-02-13T12:14:49;103698.56;;;8.65;100.00
8398;BME280;4236;54.504;9.588;2023-02-13T12:17:20;103700.66;;;8.73;100.00
8398;BME280;4236;54.504;9.588;2023-02-13T12:19:57;103692.00;;;8.82;100.00
8398;BME280;4236;54.504;9.588;2023-02-13T12:22:31;103681.34;;;8.82;100.00
8398;BME280;4236;54.504;9.588;2023-02-13T12:28:06;103680.84;;;8.77;100.00
8398;BME280;4236;54.504;9.588;2023-02-13T12:31:14;103675.59;;;8.28;100.00
8398;BME280;4236;54.504;9.588;2023-02-13T12:36:49;103673.97;;;8.38;100.00
8398;BME280;4236;54.504;9.588;2023-02-13T12:39:25;103674.03;;;8.49;100.00
8398;BME280;4236;54.504;9.588;2023-02-13T12:42:04;103680.72;;;8.55;100.00
8398;BME280;4236;54.504;9.588;2023-02-13T12:44:41;103678.59;;;8.60;100.00
8398;BME280;4236;54.504;9.588;2023-02-13T12:47:17;103667.72;;;8.63;100.00
8398;BME280;4236;54.504;9.588;2023-02-13T12:50:04;103676.84;;;8.71;100.00
8398;BME280;4236;54.504;9.588;2023-02-13T12:52:45;103675.03;;;8.72;100.00
8398;BME280;4236;54.504;9.588;2023-02-13T12:55:27;103686.44;;;8.61;100.00
8398;BME280;4236;54.504;9.588;2023-02-13T12:58:06;103688.69;;;8.55;100.00
8398;BME280;4236;54.504;9.588;2023-02-13T13:00:45;103690.59;;;8.29;100.00
8398;BME280;4236;54.504;9.588;2023-02-13T13:03:27;103694.19;;;8.15;100.00
8398;BME280;4236;54.504;9.588;2023-02-13T13:06:07;103687.44;;;7.99;100.00
8398;BME280;4236;54.504;9.588;2023-02-13T13:08:51;103695.69;;;8.07;100.00
8398;BME280;4236;54.504;9.588;2023-02-13T13:11:38;103702.72;;;7.95;100.00
8398;BME280;4236;54.504;9.588;2023-02-13T13:14:15;103692.88;;;7.97;100.00
8398;BME280;4236;54.504;9.588;2023-02-13T13:16:49;103696.59;;;7.82;100.00
8398;BME280;4236;54.504;9.588;2023-02-13T13:19:27;103673.00;;;7.90;100.00
8398;BME280;4236;54.504;9.588;2023-02-13T13:22:03;103678.59;;;7.98;100.00
8398;BME280;4236;54.504;9.588;2023-02-13T13:24:41;103675.50;;;8.04;100.00
8398;BME280;4236;54.504;9.588;2023-02-13T13:27:18;103684.25;;;8.06;100.00
8398;BME280;4236;54.504;9.588;2023-02-13T13:29:52;103689.09;;;8.12;100.00
8398;BME280;4236;54.504;9.588;2023-02-13T13:32:21;103693.59;;;8.12;100.00
8398;BME280;4236;54.504;9.588;2023-02-13T13:34:50;103696.56;;;7.95;100.00
8398;BME280;4236;54.504;9.588;2023-02-13T13:37:25;103702.72;;;7.82;100.00
8398;BME280;4236;54.504;9.588;2023-02-13T13:39:58;103702.66;;;7.84;100.00
8398;BME280;4236;54.504;9.588;2023-02-13T13:42:34;103700.41;;;7.91;100.00
8398;BME280;4236;54.504;9.588;2023-02-13T13:45:19;103696.25;;;7.99;100.00
8398;BME280;4236;54.504;9.588;2023-02-13T13:48:00;103701.22;;;8.04;100.00